Airfield :
LOGIN :

Register | Disclaimer

   EN    FR    IT 

 










Legend :    VFR   Marginal VFR   IFR   Intensive IFR   Very Intensive IFR
Visi :
Ceiling :
>= 8 km
>= 3000ft
5 to 8 km
1000 to 3000 ft
1500m to 5 km
500 to 1000 ft
800 to 1500m
200 to 500 ft
< 800m
< 200 ft
Symbols :   Thunderstorms  Fog  Heavy snow  Heavy precipitations  Wind > 20 kt
SIGMETs :     Misc.  Thunderstorms  Icing  Turbulence  Mountain Waves  Volcanic Ashes






- Airport Elevation : 16 ft
- IATA code : SDR


LEXJ - Santander Cantabria

CURRENT METAR :
  • 231300Z 30016KT 9999 -RA BKN022 11/08 Q1021

EXPIRED METARs :
  • 231230Z 29015G25KT 9999 -RA BKN025 11/07 Q1021
  • 231200Z 30019KT 9000 -RA BKN028 11/06 Q1021
  • 231130Z 29016G26KT 260V320 9999 SCT035 BKN050 11/06 Q1021
  • 231100Z 29019KT 9999 SCT038 BKN050 12/05 Q1021
  • 231030Z 29020KT 260V320 9999 SCT032 BKN050 12/05 Q1021
  • 231000Z 29018KT 9999 -RA BKN036 BKN050 11/06 Q1021
  • 230930Z 28013G23KT 250V330 9999 BKN032 11/06 Q1022
  • 230900Z 27010KT 240V300 9999 -RA BKN035 10/06 Q1022
  • 230830Z 25009KT 230V290 9999 -RA BKN042 10/05 Q1022

TAF AMD TAF LEXJ
Valid from the 23 at 10:00 until the 24 at 09:00 UTC


231048Z 2310/2409 22009KT 9999 BKN030 TX14/2409Z TN07/2406Z
PROB40
TEMPO 2310/2316 3000 RA BKN010
TEMPO 2310/2315 29012KT
PROB40
TEMPO 2310/2313 29015G27KT
PROB30
TEMPO 2314/2322 01010KT



MET'MAP, your aeronautical weather chart ! - Copyright ORBIFLY December 2007 - Disclaimer

ORBIFLY MET'MAP TEAM :

Programming & Development : Alexandra Zaïnal
Original concept : Baudouin d'Aumeries
Technical & hardware support : Manuel Goepfert
Assistance : Marc-Olivier Méhu




SOURCES & CREDITS :

   NOAA